Wec Goya — CQIE5 — position and weather

sailwx.info

Track history (hours):
 
Tides and Currents Weather Stations Pressure Air Temp Water Temp Dewpoint Dewpoint Depression Visibility Wind Speed Wind Dir Waves Ship Positions

Wec Goya

Last reported at 2018-Feb-19 03:50 UTC. Time now 2018-Feb-25 11:29 UTC.
Position N 43°46' W 006°31'.

Length 135 m; draft 5.7 m.

Type: Ship. MMSI: 255805937.

Date/timePositionNaut miles runAvg speedWind from/ knotsBaromVisibWave heightAir tempDewpointWater temp
2018-Feb-19 03:50N 43°46' W 006°31'410.4
2018-Feb-19 03:28N 43°46' W 006°26'510.5
2018-Feb-19 03:00N 43°47' W 006°19'510.3
2018-Feb-19 02:30N 43°47' W 006°12'510.1
2018-Feb-19 02:00N 43°46' W 006°05'510.0
2018-Feb-19 01:30N 43°45' W 005°59'510.1
2018-Feb-19 01:00N 43°45' W 005°52'5 9.7
2018-Feb-19 00:30N 43°44' W 005°45'1910.0
2018-Feb-18 22:34N 43°42' W 005°18'1510.1
2018-Feb-18 21:04N 43°40' W 004°58'1 9.8
2018-Feb-18 21:00N 43°40' W 004°57'42 9.8
2018-Feb-18 16:45N 43°36' W 003°60'4 9.6
2018-Feb-18 16:22N 43°36' W 003°55'4 9.7
2018-Feb-18 16:00N 43°36' W 003°50'5 9.6
2018-Feb-18 15:30N 43°36' W 003°43'5 9.3
2018-Feb-18 15:00N 43°35' W 003°37'4 9.0
2018-Feb-18 14:30N 43°35' W 003°31'4 8.9
2018-Feb-18 14:00N 43°34' W 003°25'5 9.0
2018-Feb-18 13:30N 43°31' W 003°20'5 9.6
2018-Feb-18 13:00N 43°29' W 003°14'5 9.6
2018-Feb-18 12:30N 43°26' W 003°08'5 9.7
2018-Feb-18 12:00N 43°22' W 003°04'2 3.3
2018-Feb-18 11:28N 43°21' W 003°03'0 0.0
2018-Feb-18 11:01N 43°21' W 003°03'0 0.0
2018-Feb-18 10:26N 43°21' W 003°03'0 0.0
2018-Feb-18 09:59N 43°21' W 003°03'0 0.0
2018-Feb-18 09:29N 43°21' W 003°03'0 0.0
2018-Feb-18 08:59N 43°21' W 003°03'0 0.0
2018-Feb-18 08:28N 43°21' W 003°03'0 0.0
2018-Feb-18 07:58N 43°21' W 003°03'0 0.0
2018-Feb-18 07:28N 43°21' W 003°03'0 0.0
2018-Feb-18 06:58N 43°21' W 003°03'0 0.0
2018-Feb-18 06:30N 43°21' W 003°03'0 0.0
2018-Feb-18 06:00N 43°21' W 003°03'0 0.0
2018-Feb-18 05:30N 43°21' W 003°03'0 0.0
2018-Feb-18 05:00N 43°21' W 003°03'0 0.1
2018-Feb-18 04:30N 43°21' W 003°03'2 4.1
2018-Feb-18 04:00N 43°22' W 003°04'612.7
2018-Feb-18 03:31N 43°27' W 003°10'612.6
2018-Feb-18 03:01N 43°30' W 003°18'612.1
2018-Feb-18 02:31N 43°33' W 003°25'713.5
2018-Feb-18 02:00N 43°35' W 003°34'714.2
2018-Feb-18 01:31N 43°35' W 003°44'713.9
2018-Feb-18 01:00N 43°35' W 003°54'4912.9
2018-Feb-17 21:11N 43°36' W 005°02'310.9
2018-Feb-17 20:55N 43°36' W 005°06'410.9
2018-Feb-17 20:30N 43°36' W 005°12'611.1
2018-Feb-17 19:59N 43°35' W 005°20'511.3
2018-Feb-17 19:30N 43°35' W 005°27'610.9
2018-Feb-17 18:59N 43°35' W 005°35'5 9.8
2018-Feb-17 18:30N 43°34' W 005°41'0 0.1
2018-Feb-17 16:02N 43°33' W 005°41'0 0.0
2018-Feb-17 15:38N 43°33' W 005°41'0 0.0
2018-Feb-17 15:26N 43°33' W 005°41'0 0.0
2018-Feb-17 12:55N 43°33' W 005°41'0 0.0
2018-Feb-17 12:13N 43°33' W 005°41'0 0.0
2018-Feb-17 11:49N 43°33' W 005°41'0 0.0
2018-Feb-17 11:30N 43°33' W 005°41'0 0.0
2018-Feb-17 11:00N 43°33' W 005°41'0 0.0
2018-Feb-17 10:30N 43°33' W 005°41'0 0.0
2018-Feb-17 10:00N 43°33' W 005°41'0 0.0
2018-Feb-17 09:29N 43°33' W 005°41'0 0.0
2018-Feb-17 08:59N 43°33' W 005°41'0 0.0
2018-Feb-17 08:29N 43°33' W 005°41'0 0.0
2018-Feb-17 07:59N 43°33' W 005°41'0 0.0
2018-Feb-17 07:29N 43°33' W 005°41'0 0.0
2018-Feb-17 06:58N 43°33' W 005°41'0 0.0
2018-Feb-17 06:28N 43°33' W 005°41'0 0.4
2018-Feb-17 06:00N 43°34' W 005°41'2 4.0
2018-Feb-17 05:30N 43°35' W 005°40'611.3
2018-Feb-17 05:00N 43°40' W 005°44'612.8
2018-Feb-17 04:31N 43°44' W 005°51'612.3
2018-Feb-17 04:00N 43°45' W 005°60'713.1
2018-Feb-17 03:30N 43°46' W 006°09'714.0
2018-Feb-17 03:00N 43°46' W 006°18'814.0
2018-Feb-17 02:27N 43°47' W 006°29'324 9.3
2018-Feb-15 15:40N 39°17' W 010°29'215.2
2018-Feb-15 15:30N 39°16' W 010°31'815.5
2018-Feb-15 15:00N 39°09' W 010°35'1116.5
2018-Feb-15 14:20N 38°58' W 010°39'616.4
2018-Feb-15 14:00N 38°53' W 010°42'1116.6
2018-Feb-15 13:19N 38°43' W 010°47'63117.1
2018-Feb-14 00:21N 28°49' W 015°05'617.0
2018-Feb-14 00:00N 28°44' W 015°08'917.1
2018-Feb-13 23:30N 28°36' W 015°11'917.1
2018-Feb-13 23:00N 28°28' W 015°15'917.4
2018-Feb-13 22:30N 28°20' W 015°18'917.3
2018-Feb-13 22:00N 28°11' W 015°21'510.2
2018-Feb-13 21:30N 28°08' W 015°25'0 0.2
2018-Feb-13 20:59N 28°08' W 015°25'0 0.0
2018-Feb-13 20:26N 28°08' W 015°25'0 0.0
2018-Feb-13 19:53N 28°08' W 015°25'0 0.0
2018-Feb-13 19:20N 28°08' W 015°25'0 0.0
2018-Feb-13 18:58N 28°08' W 015°25'0 0.0
2018-Feb-13 18:28N 28°08' W 015°25'0 0.0
2018-Feb-13 17:55N 28°08' W 015°25'0 0.0
2018-Feb-13 17:22N 28°08' W 015°25'0 0.0
2018-Feb-13 16:48N 28°08' W 015°25'0 0.0
2018-Feb-13 16:30N 28°08' W 015°25'0 0.0
2018-Feb-13 15:42N 28°08' W 015°25'0 0.0
2018-Feb-13 15:24N 28°08' W 015°25'0 0.0
2018-Feb-13 14:51N 28°08' W 015°25'0 0.0
2018-Feb-13 14:29N 28°08' W 015°25'0 0.0
2018-Feb-13 13:59N 28°08' W 015°25'0 0.0
2018-Feb-13 13:26N 28°08' W 015°25'0 0.0
2018-Feb-13 12:59N 28°08' W 015°25'0 0.0
2018-Feb-13 12:29N 28°08' W 015°25'0 0.0
2018-Feb-13 11:58N 28°08' W 015°25'0 0.0
2018-Feb-13 11:28N 28°08' W 015°25'0 0.0
2018-Feb-13 10:58N 28°08' W 015°25'0 0.0
2018-Feb-13 10:28N 28°08' W 015°25'0 0.0
2018-Feb-13 10:00N 28°08' W 015°25'0 0.0
2018-Feb-13 09:30N 28°08' W 015°25'0 0.0
2018-Feb-13 09:00N 28°08' W 015°25'0 0.0
2018-Feb-13 08:30N 28°08' W 015°25'0 0.0
2018-Feb-13 08:00N 28°08' W 015°25'0 0.0
2018-Feb-13 07:29N 28°08' W 015°25'0 0.0
2018-Feb-13 06:59N 28°08' W 015°25'0 0.0
2018-Feb-13 06:29N 28°08' W 015°25'0 0.0
2018-Feb-13 05:59N 28°08' W 015°25'0 0.0
2018-Feb-13 05:26N 28°08' W 015°25'0 0.0
2018-Feb-13 04:58N 28°08' W 015°25'0 0.0
2018-Feb-13 04:28N 28°08' W 015°25'0 0.0
2018-Feb-13 03:58N 28°08' W 015°25'0 0.0
2018-Feb-13 03:28N 28°08' W 015°25'0 0.0
2018-Feb-13 03:00N 28°08' W 015°25'0 0.0
2018-Feb-13 02:30N 28°08' W 015°25'0 0.0
2018-Feb-13 02:00N 28°08' W 015°25'0 0.0
2018-Feb-13 01:30N 28°08' W 015°25'0 0.0
2018-Feb-13 01:00N 28°08' W 015°25'0 0.0
2018-Feb-13 00:30N 28°08' W 015°25'0 0.0
2018-Feb-13 00:00N 28°08' W 015°25'0 0.0
2018-Feb-12 23:30N 28°08' W 015°25'0 0.0
2018-Feb-12 23:00N 28°08' W 015°25'0 0.1
2018-Feb-12 22:30N 28°08' W 015°25'2 3.2
2018-Feb-12 21:58N 28°09' W 015°24'0 0.1
2018-Feb-12 21:28N 28°09' W 015°24'0 0.0
2018-Feb-12 20:58N 28°09' W 015°24'0 0.0
2018-Feb-12 20:24N 28°09' W 015°24'0 0.0
2018-Feb-12 20:00N 28°09' W 015°24'0 0.0
2018-Feb-12 19:30N 28°09' W 015°24'0 0.0
2018-Feb-12 19:00N 28°09' W 015°24'0 0.0
2018-Feb-12 18:30N 28°09' W 015°24'0 0.0
2018-Feb-12 17:59N 28°09' W 015°24'0 0.0
2018-Feb-12 17:29N 28°09' W 015°24'0 0.0
2018-Feb-12 17:00N 28°09' W 015°24'1 1.8
2018-Feb-12 16:30N 28°09' W 015°23'3 5.0
2018-Feb-12 16:00N 28°08' W 015°21'2 4.4
2018-Feb-12 15:30N 28°08' W 015°23'611.5
2018-Feb-12 15:01N 28°13' W 015°26'816.8
2018-Feb-12 14:30N 28°16' W 015°35'816.7
2018-Feb-12 14:00N 28°19' W 015°44'816.7
2018-Feb-12 13:31N 28°21' W 015°53'816.6
2018-Feb-12 13:01N 28°24' W 016°02'916.8
2018-Feb-12 12:30N 28°27' W 016°11'3 5.9
2018-Feb-12 12:00N 28°29' W 016°14'0 0.0
2018-Feb-12 11:30N 28°29' W 016°14'0 0.0
2018-Feb-12 11:00N 28°29' W 016°14'0 0.0
2018-Feb-12 10:30N 28°29' W 016°14'0 0.0
2018-Feb-12 10:00N 28°29' W 016°14'0 0.0
2018-Feb-12 09:30N 28°29' W 016°14'0 0.0
2018-Feb-12 09:00N 28°29' W 016°14'0 0.0
2018-Feb-12 08:30N 28°29' W 016°14'0 0.1
2018-Feb-12 07:57N 28°29' W 016°14'1 2.6
2018-Feb-12 07:30N 28°28' W 016°13'612.1
2018-Feb-12 07:00N 28°30' W 016°06'713.5
2018-Feb-12 06:30N 28°34' W 016°01'713.9
2018-Feb-12 06:01N 28°39' W 015°55'712.7
2018-Feb-12 05:26N 28°44' W 015°48'711.7
2018-Feb-12 04:48N 28°48' W 015°42'412.0
2018-Feb-12 04:26N 28°51' W 015°38'512.1
2018-Feb-12 04:00N 28°55' W 015°33'20710.7
2018-Feb-11 08:41N 31°09' W 012°31'313.6
2018-Feb-11 08:30N 31°11' W 012°29'816.8
2018-Feb-11 08:00N 31°16' W 012°22'917.2
2018-Feb-11 07:30N 31°22' W 012°15'816.9
2018-Feb-11 07:00N 31°28' W 012°07'917.2
2018-Feb-11 06:30N 31°33' W 011°59'917.0
2018-Feb-11 06:00N 31°39' W 011°52'  
Track history (hours):
 
Tides and Currents Weather Stations Pressure Air Temp Water Temp Dewpoint Dewpoint Depression Visibility Wind Speed Wind Dir Waves Ship Positions

Wec Goya

Last reported at 2018-Feb-19 03:50 UTC. Time now 2018-Feb-25 11:29 UTC.
Position N 43°46' W 006°31'.

Length 135 m; draft 5.7 m.

Type: Ship. MMSI: 255805937.

Date/timePositionNaut miles runAvg speedWind from/ knotsBaromVisibWave heightAir tempDewpointWater temp
2018-Feb-19 03:50N 43°46' W 006°31'410.4
2018-Feb-19 03:28N 43°46' W 006°26'510.5
2018-Feb-19 03:00N 43°47' W 006°19'510.3
2018-Feb-19 02:30N 43°47' W 006°12'510.1
2018-Feb-19 02:00N 43°46' W 006°05'510.0
2018-Feb-19 01:30N 43°45' W 005°59'510.1
2018-Feb-19 01:00N 43°45' W 005°52'5 9.7
2018-Feb-19 00:30N 43°44' W 005°45'1910.0
2018-Feb-18 22:34N 43°42' W 005°18'1510.1
2018-Feb-18 21:04N 43°40' W 004°58'1 9.8
2018-Feb-18 21:00N 43°40' W 004°57'42 9.8
2018-Feb-18 16:45N 43°36' W 003°60'4 9.6
2018-Feb-18 16:22N 43°36' W 003°55'4 9.7
2018-Feb-18 16:00N 43°36' W 003°50'5 9.6
2018-Feb-18 15:30N 43°36' W 003°43'5 9.3
2018-Feb-18 15:00N 43°35' W 003°37'4 9.0
2018-Feb-18 14:30N 43°35' W 003°31'4 8.9
2018-Feb-18 14:00N 43°34' W 003°25'5 9.0
2018-Feb-18 13:30N 43°31' W 003°20'5 9.6
2018-Feb-18 13:00N 43°29' W 003°14'5 9.6
2018-Feb-18 12:30N 43°26' W 003°08'5 9.7
2018-Feb-18 12:00N 43°22' W 003°04'2 3.3
2018-Feb-18 11:28N 43°21' W 003°03'0 0.0
2018-Feb-18 11:01N 43°21' W 003°03'0 0.0
2018-Feb-18 10:26N 43°21' W 003°03'0 0.0
2018-Feb-18 09:59N 43°21' W 003°03'0 0.0
2018-Feb-18 09:29N 43°21' W 003°03'0 0.0
2018-Feb-18 08:59N 43°21' W 003°03'0 0.0
2018-Feb-18 08:28N 43°21' W 003°03'0 0.0
2018-Feb-18 07:58N 43°21' W 003°03'0 0.0
2018-Feb-18 07:28N 43°21' W 003°03'0 0.0
2018-Feb-18 06:58N 43°21' W 003°03'0 0.0
2018-Feb-18 06:30N 43°21' W 003°03'0 0.0
2018-Feb-18 06:00N 43°21' W 003°03'0 0.0
2018-Feb-18 05:30N 43°21' W 003°03'0 0.0
2018-Feb-18 05:00N 43°21' W 003°03'0 0.1
2018-Feb-18 04:30N 43°21' W 003°03'2 4.1
2018-Feb-18 04:00N 43°22' W 003°04'612.7
2018-Feb-18 03:31N 43°27' W 003°10'612.6
2018-Feb-18 03:01N 43°30' W 003°18'612.1
2018-Feb-18 02:31N 43°33' W 003°25'713.5
2018-Feb-18 02:00N 43°35' W 003°34'714.2
2018-Feb-18 01:31N 43°35' W 003°44'713.9
2018-Feb-18 01:00N 43°35' W 003°54'4912.9
2018-Feb-17 21:11N 43°36' W 005°02'310.9
2018-Feb-17 20:55N 43°36' W 005°06'410.9
2018-Feb-17 20:30N 43°36' W 005°12'611.1
2018-Feb-17 19:59N 43°35' W 005°20'511.3
2018-Feb-17 19:30N 43°35' W 005°27'610.9
2018-Feb-17 18:59N 43°35' W 005°35'5 9.8
2018-Feb-17 18:30N 43°34' W 005°41'0 0.1
2018-Feb-17 16:02N 43°33' W 005°41'0 0.0
2018-Feb-17 15:38N 43°33' W 005°41'0 0.0
2018-Feb-17 15:26N 43°33' W 005°41'0 0.0
2018-Feb-17 12:55N 43°33' W 005°41'0 0.0
2018-Feb-17 12:13N 43°33' W 005°41'0 0.0
2018-Feb-17 11:49N 43°33' W 005°41'0 0.0
2018-Feb-17 11:30N 43°33' W 005°41'0 0.0
2018-Feb-17 11:00N 43°33' W 005°41'0 0.0
2018-Feb-17 10:30N 43°33' W 005°41'0 0.0
2018-Feb-17 10:00N 43°33' W 005°41'0 0.0
2018-Feb-17 09:29N 43°33' W 005°41'0 0.0
2018-Feb-17 08:59N 43°33' W 005°41'0 0.0
2018-Feb-17 08:29N 43°33' W 005°41'0 0.0
2018-Feb-17 07:59N 43°33' W 005°41'0 0.0
2018-Feb-17 07:29N 43°33' W 005°41'0 0.0
2018-Feb-17 06:58N 43°33' W 005°41'0 0.0
2018-Feb-17 06:28N 43°33' W 005°41'0 0.4
2018-Feb-17 06:00N 43°34' W 005°41'2 4.0
2018-Feb-17 05:30N 43°35' W 005°40'611.3
2018-Feb-17 05:00N 43°40' W 005°44'612.8
2018-Feb-17 04:31N 43°44' W 005°51'612.3
2018-Feb-17 04:00N 43°45' W 005°60'713.1
2018-Feb-17 03:30N 43°46' W 006°09'714.0
2018-Feb-17 03:00N 43°46' W 006°18'814.0
2018-Feb-17 02:27N 43°47' W 006°29'324 9.3
2018-Feb-15 15:40N 39°17' W 010°29'215.2
2018-Feb-15 15:30N 39°16' W 010°31'815.5
2018-Feb-15 15:00N 39°09' W 010°35'1116.5
2018-Feb-15 14:20N 38°58' W 010°39'616.4
2018-Feb-15 14:00N 38°53' W 010°42'1116.6
2018-Feb-15 13:19N 38°43' W 010°47'63117.1
2018-Feb-14 00:21N 28°49' W 015°05'617.0
2018-Feb-14 00:00N 28°44' W 015°08'917.1
2018-Feb-13 23:30N 28°36' W 015°11'917.1
2018-Feb-13 23:00N 28°28' W 015°15'917.4
2018-Feb-13 22:30N 28°20' W 015°18'917.3
2018-Feb-13 22:00N 28°11' W 015°21'510.2
2018-Feb-13 21:30N 28°08' W 015°25'0 0.2
2018-Feb-13 20:59N 28°08' W 015°25'0 0.0
2018-Feb-13 20:26N 28°08' W 015°25'0 0.0
2018-Feb-13 19:53N 28°08' W 015°25'0 0.0
2018-Feb-13 19:20N 28°08' W 015°25'0 0.0
2018-Feb-13 18:58N 28°08' W 015°25'0 0.0
2018-Feb-13 18:28N 28°08' W 015°25'0 0.0
2018-Feb-13 17:55N 28°08' W 015°25'0 0.0
2018-Feb-13 17:22N 28°08' W 015°25'0 0.0
2018-Feb-13 16:48N 28°08' W 015°25'0 0.0
2018-Feb-13 16:30N 28°08' W 015°25'0 0.0
2018-Feb-13 15:42N 28°08' W 015°25'0 0.0
2018-Feb-13 15:24N 28°08' W 015°25'0 0.0
2018-Feb-13 14:51N 28°08' W 015°25'0 0.0
2018-Feb-13 14:29N 28°08' W 015°25'0 0.0
2018-Feb-13 13:59N 28°08' W 015°25'0 0.0
2018-Feb-13 13:26N 28°08' W 015°25'0 0.0
2018-Feb-13 12:59N 28°08' W 015°25'0 0.0
2018-Feb-13 12:29N 28°08' W 015°25'0 0.0
2018-Feb-13 11:58N 28°08' W 015°25'0 0.0
2018-Feb-13 11:28N 28°08' W 015°25'0 0.0
2018-Feb-13 10:58N 28°08' W 015°25'0 0.0
2018-Feb-13 10:28N 28°08' W 015°25'0 0.0
2018-Feb-13 10:00N 28°08' W 015°25'0 0.0
2018-Feb-13 09:30N 28°08' W 015°25'0 0.0
2018-Feb-13 09:00N 28°08' W 015°25'0 0.0
2018-Feb-13 08:30N 28°08' W 015°25'0 0.0
2018-Feb-13 08:00N 28°08' W 015°25'0 0.0
2018-Feb-13 07:29N 28°08' W 015°25'0 0.0
2018-Feb-13 06:59N 28°08' W 015°25'0 0.0
2018-Feb-13 06:29N 28°08' W 015°25'0 0.0
2018-Feb-13 05:59N 28°08' W 015°25'0 0.0
2018-Feb-13 05:26N 28°08' W 015°25'0 0.0
2018-Feb-13 04:58N 28°08' W 015°25'0 0.0
2018-Feb-13 04:28N 28°08' W 015°25'0 0.0
2018-Feb-13 03:58N 28°08' W 015°25'0 0.0
2018-Feb-13 03:28N 28°08' W 015°25'0 0.0
2018-Feb-13 03:00N 28°08' W 015°25'0 0.0
2018-Feb-13 02:30N 28°08' W 015°25'0 0.0
2018-Feb-13 02:00N 28°08' W 015°25'0 0.0
2018-Feb-13 01:30N 28°08' W 015°25'0 0.0
2018-Feb-13 01:00N 28°08' W 015°25'0 0.0
2018-Feb-13 00:30N 28°08' W 015°25'0 0.0
2018-Feb-13 00:00N 28°08' W 015°25'0 0.0
2018-Feb-12 23:30N 28°08' W 015°25'0 0.0
2018-Feb-12 23:00N 28°08' W 015°25'0 0.1
2018-Feb-12 22:30N 28°08' W 015°25'2 3.2
2018-Feb-12 21:58N 28°09' W 015°24'0 0.1
2018-Feb-12 21:28N 28°09' W 015°24'0 0.0
2018-Feb-12 20:58N 28°09' W 015°24'0 0.0
2018-Feb-12 20:24N 28°09' W 015°24'0 0.0
2018-Feb-12 20:00N 28°09' W 015°24'0 0.0
2018-Feb-12 19:30N 28°09' W 015°24'0 0.0
2018-Feb-12 19:00N 28°09' W 015°24'0 0.0
2018-Feb-12 18:30N 28°09' W 015°24'0 0.0
2018-Feb-12 17:59N 28°09' W 015°24'0 0.0
2018-Feb-12 17:29N 28°09' W 015°24'0 0.0
2018-Feb-12 17:00N 28°09' W 015°24'1 1.8
2018-Feb-12 16:30N 28°09' W 015°23'3 5.0
2018-Feb-12 16:00N 28°08' W 015°21'2 4.4
2018-Feb-12 15:30N 28°08' W 015°23'611.5
2018-Feb-12 15:01N 28°13' W 015°26'816.8
2018-Feb-12 14:30N 28°16' W 015°35'816.7
2018-Feb-12 14:00N 28°19' W 015°44'816.7
2018-Feb-12 13:31N 28°21' W 015°53'816.6
2018-Feb-12 13:01N 28°24' W 016°02'916.8
2018-Feb-12 12:30N 28°27' W 016°11'3 5.9
2018-Feb-12 12:00N 28°29' W 016°14'0 0.0
2018-Feb-12 11:30N 28°29' W 016°14'0 0.0
2018-Feb-12 11:00N 28°29' W 016°14'0 0.0
2018-Feb-12 10:30N 28°29' W 016°14'0 0.0
2018-Feb-12 10:00N 28°29' W 016°14'0 0.0
2018-Feb-12 09:30N 28°29' W 016°14'0 0.0
2018-Feb-12 09:00N 28°29' W 016°14'0 0.0
2018-Feb-12 08:30N 28°29' W 016°14'0 0.1
2018-Feb-12 07:57N 28°29' W 016°14'1 2.6
2018-Feb-12 07:30N 28°28' W 016°13'612.1
2018-Feb-12 07:00N 28°30' W 016°06'713.5
2018-Feb-12 06:30N 28°34' W 016°01'713.9
2018-Feb-12 06:01N 28°39' W 015°55'712.7
2018-Feb-12 05:26N 28°44' W 015°48'711.7
2018-Feb-12 04:48N 28°48' W 015°42'412.0
2018-Feb-12 04:26N 28°51' W 015°38'512.1
2018-Feb-12 04:00N 28°55' W 015°33'20710.7
2018-Feb-11 08:41N 31°09' W 012°31'313.6
2018-Feb-11 08:30N 31°11' W 012°29'816.8
2018-Feb-11 08:00N 31°16' W 012°22'917.2
2018-Feb-11 07:30N 31°22' W 012°15'816.9
2018-Feb-11 07:00N 31°28' W 012°07'917.2
2018-Feb-11 06:30N 31°33' W 011°59'917.0
2018-Feb-11 06:00N 31°39' W 011°52'  

Dump ship's entire track history